sensor_id;sensor_type;location;lat;lon;timestamp;P1;durP1;ratioP1;P2;durP2;ratioP2
59418;SDS011;45224;50.904;6.038;2023-03-23T00:00:47;12.93;;;6.07;;
59418;SDS011;45224;50.904;6.038;2023-03-23T00:02:17;12.75;;;5.70;;
59418;SDS011;45224;50.904;6.038;2023-03-23T00:03:49;17.93;;;6.37;;
59418;SDS011;45224;50.904;6.038;2023-03-23T00:05:21;14.65;;;6.13;;
59418;SDS011;45224;50.904;6.038;2023-03-23T00:06:51;13.50;;;6.17;;
59418;SDS011;45224;50.904;6.038;2023-03-23T00:08:22;11.45;;;5.80;;
59418;SDS011;45224;50.904;6.038;2023-03-23T00:09:52;14.67;;;5.87;;
59418;SDS011;45224;50.904;6.038;2023-03-23T00:11:27;12.82;;;5.85;;
59418;SDS011;45224;50.904;6.038;2023-03-23T00:12:59;11.52;;;5.47;;
59418;SDS011;45224;50.904;6.038;2023-03-23T00:14:32;11.68;;;5.35;;
59418;SDS011;45224;50.904;6.038;2023-03-23T00:16:11;14.57;;;6.55;;
59418;SDS011;45224;50.904;6.038;2023-03-23T00:17:49;12.55;;;5.63;;
59418;SDS011;45224;50.904;6.038;2023-03-23T00:19:19;12.40;;;5.82;;
59418;SDS011;45224;50.904;6.038;2023-03-23T00:20:51;14.40;;;6.67;;
59418;SDS011;45224;50.904;6.038;2023-03-23T00:22:27;14.32;;;6.55;;
59418;SDS011;45224;50.904;6.038;2023-03-23T00:23:59;13.55;;;5.95;;
59418;SDS011;45224;50.904;6.038;2023-03-23T00:25:37;14.07;;;5.45;;
59418;SDS011;45224;50.904;6.038;2023-03-23T00:27:07;14.10;;;5.67;;
59418;SDS011;45224;50.904;6.038;2023-03-23T00:28:39;11.07;;;5.85;;
59418;SDS011;45224;50.904;6.038;2023-03-23T00:30:10;12.90;;;5.60;;
59418;SDS011;45224;50.904;6.038;2023-03-23T00:31:42;10.43;;;5.50;;
59418;SDS011;45224;50.904;6.038;2023-03-23T00:33:16;13.45;;;5.70;;
59418;SDS011;45224;50.904;6.038;2023-03-23T00:34:47;13.40;;;5.40;;
59418;SDS011;45224;50.904;6.038;2023-03-23T00:36:19;11.80;;;5.25;;
59418;SDS011;45224;50.904;6.038;2023-03-23T00:37:53;13.35;;;5.90;;
59418;SDS011;45224;50.904;6.038;2023-03-23T00:39:26;14.52;;;6.00;;
59418;SDS011;45224;50.904;6.038;2023-03-23T00:40:57;10.88;;;6.00;;
59418;SDS011;45224;50.904;6.038;2023-03-23T00:42:32;13.38;;;5.90;;
59418;SDS011;45224;50.904;6.038;2023-03-23T00:44:07;13.38;;;6.30;;
59418;SDS011;45224;50.904;6.038;2023-03-23T00:47:09;13.07;;;6.17;;
59418;SDS011;45224;50.904;6.038;2023-03-23T00:48:41;11.35;;;5.50;;
59418;SDS011;45224;50.904;6.038;2023-03-23T00:50:14;13.40;;;6.43;;
59418;SDS011;45224;50.904;6.038;2023-03-23T00:51:45;15.27;;;6.67;;
59418;SDS011;45224;50.904;6.038;2023-03-23T00:53:16;11.57;;;6.55;;
59418;SDS011;45224;50.904;6.038;2023-03-23T00:56:19;15.73;;;6.07;;
59418;SDS011;45224;50.904;6.038;2023-03-23T00:57:49;13.60;;;6.07;;
59418;SDS011;45224;50.904;6.038;2023-03-23T01:00:52;16.77;;;7.20;;
59418;SDS011;45224;50.904;6.038;2023-03-23T01:02:23;16.20;;;6.77;;
59418;SDS011;45224;50.904;6.038;2023-03-23T01:03:55;16.75;;;6.55;;
59418;SDS011;45224;50.904;6.038;2023-03-23T01:05:36;17.42;;;6.93;;
59418;SDS011;45224;50.904;6.038;2023-03-23T01:07:08;17.20;;;6.50;;
59418;SDS011;45224;50.904;6.038;2023-03-23T01:08:42;16.10;;;7.65;;
59418;SDS011;45224;50.904;6.038;2023-03-23T01:10:16;14.98;;;7.97;;
59418;SDS011;45224;50.904;6.038;2023-03-23T01:11:48;15.43;;;7.78;;
59418;SDS011;45224;50.904;6.038;2023-03-23T01:13:23;14.50;;;7.20;;
59418;SDS011;45224;50.904;6.038;2023-03-23T01:14:54;16.08;;;7.45;;
59418;SDS011;45224;50.904;6.038;2023-03-23T01:16:25;20.83;;;7.10;;
59418;SDS011;45224;50.904;6.038;2023-03-23T01:17:56;18.65;;;7.95;;
59418;SDS011;45224;50.904;6.038;2023-03-23T01:19:27;20.85;;;7.60;;
59418;SDS011;45224;50.904;6.038;2023-03-23T01:21:03;17.08;;;7.38;;
59418;SDS011;45224;50.904;6.038;2023-03-23T01:22:35;17.55;;;7.65;;
59418;SDS011;45224;50.904;6.038;2023-03-23T01:24:05;19.70;;;8.17;;
59418;SDS011;45224;50.904;6.038;2023-03-23T01:25:36;15.68;;;7.88;;
59418;SDS011;45224;50.904;6.038;2023-03-23T01:27:07;15.00;;;7.37;;
59418;SDS011;45224;50.904;6.038;2023-03-23T01:28:39;17.42;;;7.90;;
59418;SDS011;45224;50.904;6.038;2023-03-23T01:30:10;17.85;;;7.70;;
59418;SDS011;45224;50.904;6.038;2023-03-23T01:31:42;16.35;;;8.27;;
59418;SDS011;45224;50.904;6.038;2023-03-23T01:33:13;17.20;;;7.50;;
59418;SDS011;45224;50.904;6.038;2023-03-23T01:34:44;20.00;;;7.43;;
59418;SDS011;45224;50.904;6.038;2023-03-23T01:36:19;17.53;;;8.03;;
59418;SDS011;45224;50.904;6.038;2023-03-23T01:37:53;15.30;;;7.45;;
59418;SDS011;45224;50.904;6.038;2023-03-23T01:40:54;15.77;;;7.10;;
59418;SDS011;45224;50.904;6.038;2023-03-23T01:42:25;15.20;;;6.83;;
59418;SDS011;45224;50.904;6.038;2023-03-23T01:44:04;13.70;;;6.53;;
59418;SDS011;45224;50.904;6.038;2023-03-23T01:45:51;16.77;;;7.35;;
59418;SDS011;45224;50.904;6.038;2023-03-23T01:47:21;16.40;;;6.40;;
59418;SDS011;45224;50.904;6.038;2023-03-23T01:48:55;15.90;;;6.82;;
59418;SDS011;45224;50.904;6.038;2023-03-23T01:50:29;12.32;;;6.45;;
59418;SDS011;45224;50.904;6.038;2023-03-23T01:52:05;14.50;;;6.57;;
59418;SDS011;45224;50.904;6.038;2023-03-23T01:53:45;15.55;;;6.22;;
59418;SDS011;45224;50.904;6.038;2023-03-23T01:55:18;16.25;;;6.53;;
59418;SDS011;45224;50.904;6.038;2023-03-23T01:56:54;16.10;;;7.00;;
59418;SDS011;45224;50.904;6.038;2023-03-23T01:58:31;14.45;;;6.30;;
59418;SDS011;45224;50.904;6.038;2023-03-23T02:00:07;15.77;;;6.55;;
59418;SDS011;45224;50.904;6.038;2023-03-23T02:01:44;17.08;;;6.03;;
59418;SDS011;45224;50.904;6.038;2023-03-23T02:03:16;13.48;;;6.00;;
59418;SDS011;45224;50.904;6.038;2023-03-23T02:04:48;15.48;;;6.28;;
59418;SDS011;45224;50.904;6.038;2023-03-23T02:06:19;15.35;;;6.25;;
59418;SDS011;45224;50.904;6.038;2023-03-23T02:08:19;14.90;;;6.32;;
59418;SDS011;45224;50.904;6.038;2023-03-23T02:09:51;13.52;;;5.90;;
59418;SDS011;45224;50.904;6.038;2023-03-23T02:11:22;10.32;;;5.22;;
59418;SDS011;45224;50.904;6.038;2023-03-23T02:12:52;11.27;;;5.30;;
59418;SDS011;45224;50.904;6.038;2023-03-23T02:14:24;10.48;;;5.70;;
59418;SDS011;45224;50.904;6.038;2023-03-23T02:17:38;11.20;;;6.13;;
59418;SDS011;45224;50.904;6.038;2023-03-23T02:19:22;12.23;;;5.40;;
59418;SDS011;45224;50.904;6.038;2023-03-23T02:29:48;12.68;;;5.85;;
59418;SDS011;45224;50.904;6.038;2023-03-23T02:31:47;12.02;;;5.90;;
59418;SDS011;45224;50.904;6.038;2023-03-23T02:33:46;12.60;;;5.80;;
59418;SDS011;45224;50.904;6.038;2023-03-23T02:35:28;12.00;;;6.07;;
59418;SDS011;45224;50.904;6.038;2023-03-23T02:37:06;11.73;;;5.32;;
59418;SDS011;45224;50.904;6.038;2023-03-23T02:38:43;12.65;;;5.70;;
59418;SDS011;45224;50.904;6.038;2023-03-23T02:40:23;15.05;;;5.22;;
59418;SDS011;45224;50.904;6.038;2023-03-23T02:42:05;14.20;;;5.85;;
59418;SDS011;45224;50.904;6.038;2023-03-23T02:43:42;10.93;;;5.57;;
59418;SDS011;45224;50.904;6.038;2023-03-23T02:45:16;12.02;;;5.18;;
59418;SDS011;45224;50.904;6.038;2023-03-23T02:46:49;12.90;;;5.70;;
59418;SDS011;45224;50.904;6.038;2023-03-23T02:48:24;13.02;;;5.45;;
59418;SDS011;45224;50.904;6.038;2023-03-23T02:49:59;12.65;;;5.55;;
59418;SDS011;45224;50.904;6.038;2023-03-23T02:51:30;7.20;;;4.78;;
59418;SDS011;45224;50.904;6.038;2023-03-23T02:53:05;9.02;;;5.35;;
59418;SDS011;45224;50.904;6.038;2023-03-23T02:54:39;11.70;;;5.15;;
59418;SDS011;45224;50.904;6.038;2023-03-23T02:56:12;8.93;;;5.28;;
59418;SDS011;45224;50.904;6.038;2023-03-23T02:57:45;10.43;;;4.88;;
59418;SDS011;45224;50.904;6.038;2023-03-23T02:59:19;8.35;;;4.75;;
59418;SDS011;45224;50.904;6.038;2023-03-23T03:00:50;10.97;;;4.80;;
59418;SDS011;45224;50.904;6.038;2023-03-23T03:02:21;7.50;;;4.80;;
59418;SDS011;45224;50.904;6.038;2023-03-23T03:03:56;8.35;;;4.72;;
59418;SDS011;45224;50.904;6.038;2023-03-23T03:09:10;6.68;;;3.90;;
59418;SDS011;45224;50.904;6.038;2023-03-23T03:11:14;8.55;;;4.47;;
59418;SDS011;45224;50.904;6.038;2023-03-23T03:12:55;7.88;;;4.28;;
59418;SDS011;45224;50.904;6.038;2023-03-23T03:14:50;7.57;;;4.13;;
59418;SDS011;45224;50.904;6.038;2023-03-23T03:16:46;8.35;;;3.97;;
59418;SDS011;45224;50.904;6.038;2023-03-23T03:18:28;7.32;;;4.45;;
59418;SDS011;45224;50.904;6.038;2023-03-23T03:20:05;7.25;;;4.00;;
59418;SDS011;45224;50.904;6.038;2023-03-23T03:21:42;9.73;;;4.68;;
59418;SDS011;45224;50.904;6.038;2023-03-23T03:23:15;8.32;;;3.92;;
59418;SDS011;45224;50.904;6.038;2023-03-23T03:24:48;10.77;;;4.38;;
59418;SDS011;45224;50.904;6.038;2023-03-23T03:26:22;6.00;;;4.03;;
59418;SDS011;45224;50.904;6.038;2023-03-23T03:27:59;7.60;;;3.70;;
59418;SDS011;45224;50.904;6.038;2023-03-23T03:29:41;5.32;;;3.65;;
59418;SDS011;45224;50.904;6.038;2023-03-23T03:31:21;7.38;;;3.83;;
59418;SDS011;45224;50.904;6.038;2023-03-23T03:32:57;6.13;;;3.67;;
59418;SDS011;45224;50.904;6.038;2023-03-23T03:34:30;6.07;;;3.83;;
59418;SDS011;45224;50.904;6.038;2023-03-23T03:36:03;6.35;;;3.78;;
59418;SDS011;45224;50.904;6.038;2023-03-23T03:37:38;7.43;;;3.85;;
59418;SDS011;45224;50.904;6.038;2023-03-23T03:39:12;6.15;;;4.15;;
59418;SDS011;45224;50.904;6.038;2023-03-23T03:40:46;7.68;;;3.95;;
59418;SDS011;45224;50.904;6.038;2023-03-23T03:42:17;5.53;;;3.33;;
59418;SDS011;45224;50.904;6.038;2023-03-23T03:43:47;6.63;;;3.60;;
59418;SDS011;45224;50.904;6.038;2023-03-23T03:45:19;6.63;;;4.13;;
59418;SDS011;45224;50.904;6.038;2023-03-23T03:46:50;6.30;;;3.40;;
59418;SDS011;45224;50.904;6.038;2023-03-23T03:48:20;4.87;;;3.57;;
59418;SDS011;45224;50.904;6.038;2023-03-23T03:49:51;5.13;;;3.50;;
59418;SDS011;45224;50.904;6.038;2023-03-23T03:51:22;7.03;;;3.40;;
59418;SDS011;45224;50.904;6.038;2023-03-23T03:52:55;5.57;;;3.60;;
59418;SDS011;45224;50.904;6.038;2023-03-23T03:54:26;7.50;;;3.90;;
59418;SDS011;45224;50.904;6.038;2023-03-23T03:55:56;5.73;;;3.53;;
59418;SDS011;45224;50.904;6.038;2023-03-23T03:57:30;6.32;;;3.47;;
59418;SDS011;45224;50.904;6.038;2023-03-23T03:59:20;5.95;;;3.45;;
59418;SDS011;45224;50.904;6.038;2023-03-23T04:01:09;5.07;;;3.10;;
59418;SDS011;45224;50.904;6.038;2023-03-23T04:02:45;6.80;;;3.30;;
59418;SDS011;45224;50.904;6.038;2023-03-23T04:04:22;5.38;;;3.30;;
59418;SDS011;45224;50.904;6.038;2023-03-23T04:05:53;4.93;;;3.00;;
59418;SDS011;45224;50.904;6.038;2023-03-23T04:07:26;5.88;;;3.13;;
59418;SDS011;45224;50.904;6.038;2023-03-23T04:08:59;6.07;;;3.10;;
59418;SDS011;45224;50.904;6.038;2023-03-23T04:10:31;4.55;;;3.20;;
59418;SDS011;45224;50.904;6.038;2023-03-23T04:12:03;7.63;;;3.90;;
59418;SDS011;45224;50.904;6.038;2023-03-23T04:13:53;8.32;;;2.97;;
59418;SDS011;45224;50.904;6.038;2023-03-23T04:15:25;3.85;;;3.05;;
59418;SDS011;45224;50.904;6.038;2023-03-23T04:16:56;5.00;;;3.22;;
59418;SDS011;45224;50.904;6.038;2023-03-23T04:18:28;4.80;;;3.60;;
59418;SDS011;45224;50.904;6.038;2023-03-23T04:21:32;5.07;;;2.92;;
59418;SDS011;45224;50.904;6.038;2023-03-23T04:23:03;4.32;;;3.05;;
59418;SDS011;45224;50.904;6.038;2023-03-23T04:24:35;5.05;;;3.10;;
59418;SDS011;45224;50.904;6.038;2023-03-23T04:26:09;3.45;;;3.00;;
59418;SDS011;45224;50.904;6.038;2023-03-23T04:27:45;4.63;;;3.00;;
59418;SDS011;45224;50.904;6.038;2023-03-23T04:29:22;5.55;;;3.40;;
59418;SDS011;45224;50.904;6.038;2023-03-23T04:31:28;4.85;;;2.95;;
59418;SDS011;45224;50.904;6.038;2023-03-23T04:33:13;3.67;;;2.65;;
59418;SDS011;45224;50.904;6.038;2023-03-23T04:34:45;5.25;;;3.03;;
59418;SDS011;45224;50.904;6.038;2023-03-23T04:36:15;5.05;;;2.80;;
59418;SDS011;45224;50.904;6.038;2023-03-23T04:37:56;5.45;;;2.92;;
59418;SDS011;45224;50.904;6.038;2023-03-23T04:39:27;6.40;;;3.10;;
59418;SDS011;45224;50.904;6.038;2023-03-23T04:41:01;3.42;;;2.83;;
59418;SDS011;45224;50.904;6.038;2023-03-23T04:42:51;4.70;;;2.88;;
59418;SDS011;45224;50.904;6.038;2023-03-23T04:44:37;5.35;;;2.80;;
59418;SDS011;45224;50.904;6.038;2023-03-23T04:46:16;4.70;;;3.10;;
59418;SDS011;45224;50.904;6.038;2023-03-23T04:47:49;6.30;;;3.05;;
59418;SDS011;45224;50.904;6.038;2023-03-23T04:49:27;3.78;;;2.80;;
59418;SDS011;45224;50.904;6.038;2023-03-23T04:51:09;6.15;;;3.20;;
59418;SDS011;45224;50.904;6.038;2023-03-23T04:52:42;3.08;;;2.40;;
59418;SDS011;45224;50.904;6.038;2023-03-23T04:54:15;6.63;;;3.08;;
59418;SDS011;45224;50.904;6.038;2023-03-23T04:55:48;6.30;;;2.95;;
59418;SDS011;45224;50.904;6.038;2023-03-23T04:57:20;5.45;;;2.78;;
59418;SDS011;45224;50.904;6.038;2023-03-23T04:59:10;5.50;;;2.70;;
59418;SDS011;45224;50.904;6.038;2023-03-23T05:00:51;4.07;;;2.47;;
59418;SDS011;45224;50.904;6.038;2023-03-23T05:02:23;5.03;;;2.70;;
59418;SDS011;45224;50.904;6.038;2023-03-23T05:05:27;5.05;;;2.70;;
59418;SDS011;45224;50.904;6.038;2023-03-23T05:07:01;3.78;;;2.60;;
59418;SDS011;45224;50.904;6.038;2023-03-23T05:08:34;3.92;;;2.63;;
59418;SDS011;45224;50.904;6.038;2023-03-23T05:10:09;3.78;;;2.47;;
59418;SDS011;45224;50.904;6.038;2023-03-23T05:11:41;3.95;;;2.60;;
59418;SDS011;45224;50.904;6.038;2023-03-23T05:13:12;4.00;;;2.67;;
59418;SDS011;45224;50.904;6.038;2023-03-23T05:14:43;5.78;;;2.80;;
59418;SDS011;45224;50.904;6.038;2023-03-23T05:16:17;4.82;;;2.60;;
59418;SDS011;45224;50.904;6.038;2023-03-23T05:17:50;3.70;;;2.35;;
59418;SDS011;45224;50.904;6.038;2023-03-23T05:19:23;5.18;;;3.00;;
59418;SDS011;45224;50.904;6.038;2023-03-23T05:21:00;5.80;;;2.50;;
59418;SDS011;45224;50.904;6.038;2023-03-23T05:22:33;6.25;;;2.50;;
59418;SDS011;45224;50.904;6.038;2023-03-23T05:24:05;5.97;;;2.50;;
59418;SDS011;45224;50.904;6.038;2023-03-23T05:25:36;5.35;;;2.35;;
59418;SDS011;45224;50.904;6.038;2023-03-23T05:27:21;4.03;;;2.72;;
59418;SDS011;45224;50.904;6.038;2023-03-23T05:28:53;4.55;;;2.50;;
59418;SDS011;45224;50.904;6.038;2023-03-23T05:30:36;4.47;;;2.13;;
59418;SDS011;45224;50.904;6.038;2023-03-23T05:32:08;7.47;;;2.80;;
59418;SDS011;45224;50.904;6.038;2023-03-23T05:33:41;3.72;;;2.03;;
59418;SDS011;45224;50.904;6.038;2023-03-23T05:35:20;4.03;;;2.20;;
59418;SDS011;45224;50.904;6.038;2023-03-23T05:36:53;5.88;;;2.20;;
59418;SDS011;45224;50.904;6.038;2023-03-23T05:38:37;4.40;;;2.00;;
59418;SDS011;45224;50.904;6.038;2023-03-23T05:40:09;5.30;;;2.10;;
59418;SDS011;45224;50.904;6.038;2023-03-23T05:41:54;6.10;;;2.30;;
59418;SDS011;45224;50.904;6.038;2023-03-23T05:43:25;5.75;;;2.30;;
59418;SDS011;45224;50.904;6.038;2023-03-23T05:45:22;3.22;;;1.77;;
59418;SDS011;45224;50.904;6.038;2023-03-23T05:46:54;3.45;;;1.95;;
59418;SDS011;45224;50.904;6.038;2023-03-23T05:48:25;4.43;;;2.28;;
59418;SDS011;45224;50.904;6.038;2023-03-23T05:49:56;3.95;;;1.65;;
59418;SDS011;45224;50.904;6.038;2023-03-23T05:51:29;3.42;;;1.75;;
59418;SDS011;45224;50.904;6.038;2023-03-23T05:53:00;4.38;;;2.20;;
59418;SDS011;45224;50.904;6.038;2023-03-23T05:54:36;7.03;;;2.30;;
59418;SDS011;45224;50.904;6.038;2023-03-23T05:56:06;4.18;;;2.10;;
59418;SDS011;45224;50.904;6.038;2023-03-23T05:57:58;4.18;;;1.65;;
59418;SDS011;45224;50.904;6.038;2023-03-23T05:59:40;5.20;;;1.98;;
59418;SDS011;45224;50.904;6.038;2023-03-23T06:01:17;6.05;;;2.08;;
59418;SDS011;45224;50.904;6.038;2023-03-23T06:02:48;8.65;;;2.05;;
59418;SDS011;45224;50.904;6.038;2023-03-23T06:04:26;7.53;;;1.80;;
59418;SDS011;45224;50.904;6.038;2023-03-23T06:06:20;4.10;;;2.00;;
59418;SDS011;45224;50.904;6.038;2023-03-23T06:07:58;4.50;;;1.85;;
59418;SDS011;45224;50.904;6.038;2023-03-23T06:11:20;3.78;;;1.60;;
59418;SDS011;45224;50.904;6.038;2023-03-23T06:13:11;4.05;;;1.70;;
59418;SDS011;45224;50.904;6.038;2023-03-23T06:14:51;3.45;;;1.80;;
59418;SDS011;45224;50.904;6.038;2023-03-23T06:16:26;4.78;;;1.88;;
59418;SDS011;45224;50.904;6.038;2023-03-23T06:18:03;3.17;;;1.65;;
59418;SDS011;45224;50.904;6.038;2023-03-23T06:19:43;4.57;;;1.67;;
59418;SDS011;45224;50.904;6.038;2023-03-23T06:21:19;4.38;;;1.85;;
59418;SDS011;45224;50.904;6.038;2023-03-23T06:22:58;4.55;;;1.58;;
59418;SDS011;45224;50.904;6.038;2023-03-23T06:24:32;3.17;;;1.60;;
59418;SDS011;45224;50.904;6.038;2023-03-23T06:26:07;4.40;;;1.70;;
59418;SDS011;45224;50.904;6.038;2023-03-23T06:27:39;3.10;;;1.60;;
59418;SDS011;45224;50.904;6.038;2023-03-23T06:29:09;3.63;;;1.63;;
59418;SDS011;45224;50.904;6.038;2023-03-23T06:30:48;7.07;;;1.80;;
59418;SDS011;45224;50.904;6.038;2023-03-23T06:32:20;9.02;;;1.70;;
59418;SDS011;45224;50.904;6.038;2023-03-23T06:33:51;5.47;;;1.80;;
59418;SDS011;45224;50.904;6.038;2023-03-23T06:35:31;3.75;;;2.10;;
59418;SDS011;45224;50.904;6.038;2023-03-23T06:37:18;3.20;;;1.50;;
59418;SDS011;45224;50.904;6.038;2023-03-23T06:39:09;5.35;;;1.80;;
59418;SDS011;45224;50.904;6.038;2023-03-23T06:40:55;4.25;;;1.75;;
59418;SDS011;45224;50.904;6.038;2023-03-23T06:42:28;3.05;;;1.63;;
59418;SDS011;45224;50.904;6.038;2023-03-23T06:44:19;3.25;;;1.55;;
59418;SDS011;45224;50.904;6.038;2023-03-23T06:45:50;4.63;;;1.50;;
59418;SDS011;45224;50.904;6.038;2023-03-23T06:47:40;4.35;;;1.63;;
59418;SDS011;45224;50.904;6.038;2023-03-23T06:49:11;5.20;;;1.70;;
59418;SDS011;45224;50.904;6.038;2023-03-23T06:50:51;2.40;;;1.33;;
59418;SDS011;45224;50.904;6.038;2023-03-23T06:52:24;3.90;;;1.55;;
59418;SDS011;45224;50.904;6.038;2023-03-23T06:56:58;6.07;;;1.40;;
59418;SDS011;45224;50.904;6.038;2023-03-23T06:58:29;2.17;;;1.45;;
59418;SDS011;45224;50.904;6.038;2023-03-23T06:59:59;3.97;;;1.60;;
59418;SDS011;45224;50.904;6.038;2023-03-23T07:01:33;2.45;;;1.48;;
59418;SDS011;45224;50.904;6.038;2023-03-23T07:03:04;3.08;;;1.45;;
59418;SDS011;45224;50.904;6.038;2023-03-23T07:06:12;5.00;;;1.73;;
59418;SDS011;45224;50.904;6.038;2023-03-23T07:07:51;3.05;;;1.40;;
59418;SDS011;45224;50.904;6.038;2023-03-23T07:09:35;3.85;;;1.38;;
59418;SDS011;45224;50.904;6.038;2023-03-23T07:11:06;4.07;;;1.75;;
59418;SDS011;45224;50.904;6.038;2023-03-23T07:12:37;3.15;;;1.33;;
59418;SDS011;45224;50.904;6.038;2023-03-23T07:14:10;3.63;;;1.50;;
59418;SDS011;45224;50.904;6.038;2023-03-23T07:15:40;4.17;;;1.67;;
59418;SDS011;45224;50.904;6.038;2023-03-23T07:17:11;3.60;;;1.87;;
59418;SDS011;45224;50.904;6.038;2023-03-23T07:18:47;2.55;;;1.40;;
59418;SDS011;45224;50.904;6.038;2023-03-23T07:20:19;4.47;;;1.35;;
59418;SDS011;45224;50.904;6.038;2023-03-23T07:21:49;3.30;;;1.47;;
59418;SDS011;45224;50.904;6.038;2023-03-23T07:23:20;4.25;;;1.50;;
59418;SDS011;45224;50.904;6.038;2023-03-23T07:25:02;3.35;;;1.42;;
59418;SDS011;45224;50.904;6.038;2023-03-23T07:26:46;6.45;;;1.70;;
59418;SDS011;45224;50.904;6.038;2023-03-23T07:28:17;4.03;;;1.60;;
59418;SDS011;45224;50.904;6.038;2023-03-23T07:29:49;4.97;;;1.60;;
59418;SDS011;45224;50.904;6.038;2023-03-23T07:31:26;4.93;;;1.50;;
59418;SDS011;45224;50.904;6.038;2023-03-23T07:32:58;5.15;;;1.58;;
59418;SDS011;45224;50.904;6.038;2023-03-23T07:36:11;1.70;;;1.43;;
59418;SDS011;45224;50.904;6.038;2023-03-23T07:39:13;3.30;;;1.40;;
59418;SDS011;45224;50.904;6.038;2023-03-23T07:40:45;3.50;;;1.50;;
59418;SDS011;45224;50.904;6.038;2023-03-23T07:42:18;2.20;;;1.25;;
59418;SDS011;45224;50.904;6.038;2023-03-23T07:43:59;5.22;;;1.67;;
59418;SDS011;45224;50.904;6.038;2023-03-23T07:45:40;3.95;;;1.40;;
59418;SDS011;45224;50.904;6.038;2023-03-23T07:47:10;3.83;;;1.30;;
59418;SDS011;45224;50.904;6.038;2023-03-23T07:48:41;3.80;;;1.40;;
59418;SDS011;45224;50.904;6.038;2023-03-23T07:50:11;4.20;;;1.50;;
59418;SDS011;45224;50.904;6.038;2023-03-23T07:51:45;5.53;;;1.70;;
59418;SDS011;45224;50.904;6.038;2023-03-23T07:53:17;3.85;;;1.35;;
59418;SDS011;45224;50.904;6.038;2023-03-23T07:54:56;5.28;;;1.73;;
59418;SDS011;45224;50.904;6.038;2023-03-23T07:56:55;4.97;;;1.50;;
59418;SDS011;45224;50.904;6.038;2023-03-23T07:58:31;4.03;;;1.60;;
59418;SDS011;45224;50.904;6.038;2023-03-23T08:00:02;2.13;;;1.40;;
59418;SDS011;45224;50.904;6.038;2023-03-23T08:01:45;3.40;;;1.20;;
59418;SDS011;45224;50.904;6.038;2023-03-23T08:03:32;3.97;;;1.48;;
59418;SDS011;45224;50.904;6.038;2023-03-23T08:05:24;5.57;;;1.52;;
59418;SDS011;45224;50.904;6.038;2023-03-23T08:07:17;6.10;;;1.50;;
59418;SDS011;45224;50.904;6.038;2023-03-23T08:09:09;2.25;;;1.40;;
59418;SDS011;45224;50.904;6.038;2023-03-23T08:11:11;3.28;;;1.25;;
59418;SDS011;45224;50.904;6.038;2023-03-23T08:12:54;3.00;;;1.50;;
59418;SDS011;45224;50.904;6.038;2023-03-23T08:14:28;6.47;;;1.55;;
59418;SDS011;45224;50.904;6.038;2023-03-23T08:16:18;3.58;;;1.20;;
59418;SDS011;45224;50.904;6.038;2023-03-23T08:18:28;5.00;;;1.48;;
59418;SDS011;45224;50.904;6.038;2023-03-23T08:20:19;8.00;;;1.67;;
59418;SDS011;45224;50.904;6.038;2023-03-23T08:22:09;3.88;;;1.50;;
59418;SDS011;45224;50.904;6.038;2023-03-23T08:24:01;5.70;;;2.13;;
59418;SDS011;45224;50.904;6.038;2023-03-23T08:25:48;2.63;;;1.40;;
59418;SDS011;45224;50.904;6.038;2023-03-23T08:27:29;5.80;;;1.47;;
59418;SDS011;45224;50.904;6.038;2023-03-23T08:29:35;4.53;;;1.50;;
59418;SDS011;45224;50.904;6.038;2023-03-23T08:31:12;8.55;;;1.77;;
59418;SDS011;45224;50.904;6.038;2023-03-23T08:33:04;4.60;;;1.50;;
59418;SDS011;45224;50.904;6.038;2023-03-23T08:35:01;4.22;;;1.48;;
59418;SDS011;45224;50.904;6.038;2023-03-23T08:36:51;5.60;;;1.30;;
59418;SDS011;45224;50.904;6.038;2023-03-23T08:38:52;5.38;;;1.65;;
59418;SDS011;45224;50.904;6.038;2023-03-23T08:40:26;4.07;;;1.60;;
59418;SDS011;45224;50.904;6.038;2023-03-23T08:42:13;3.33;;;1.20;;
59418;SDS011;45224;50.904;6.038;2023-03-23T08:44:10;2.88;;;1.35;;
59418;SDS011;45224;50.904;6.038;2023-03-23T08:46:18;5.13;;;1.27;;
59418;SDS011;45224;50.904;6.038;2023-03-23T08:48:12;4.68;;;1.52;;
59418;SDS011;45224;50.904;6.038;2023-03-23T08:50:04;4.63;;;1.52;;
59418;SDS011;45224;50.904;6.038;2023-03-23T08:52:03;4.78;;;1.40;;
59418;SDS011;45224;50.904;6.038;2023-03-23T08:53:56;2.80;;;1.20;;
59418;SDS011;45224;50.904;6.038;2023-03-23T08:55:44;5.78;;;1.50;;
59418;SDS011;45224;50.904;6.038;2023-03-23T08:57:26;5.65;;;1.40;;
59418;SDS011;45224;50.904;6.038;2023-03-23T08:59:19;4.65;;;1.35;;
59418;SDS011;45224;50.904;6.038;2023-03-23T09:01:00;4.53;;;1.50;;
59418;SDS011;45224;50.904;6.038;2023-03-23T09:02:56;4.45;;;1.77;;
59418;SDS011;45224;50.904;6.038;2023-03-23T09:04:33;4.55;;;1.63;;
59418;SDS011;45224;50.904;6.038;2023-03-23T09:06:22;5.28;;;1.20;;
59418;SDS011;45224;50.904;6.038;2023-03-23T09:07:54;8.33;;;1.53;;
59418;SDS011;45224;50.904;6.038;2023-03-23T09:09:28;3.83;;;1.40;;
59418;SDS011;45224;50.904;6.038;2023-03-23T09:10:59;5.23;;;1.43;;
59418;SDS011;45224;50.904;6.038;2023-03-23T09:14:02;5.87;;;1.47;;
59418;SDS011;45224;50.904;6.038;2023-03-23T09:15:33;3.95;;;1.15;;
59418;SDS011;45224;50.904;6.038;2023-03-23T09:17:04;4.03;;;1.33;;
59418;SDS011;45224;50.904;6.038;2023-03-23T09:20:06;2.77;;;1.10;;
59418;SDS011;45224;50.904;6.038;2023-03-23T09:21:41;4.10;;;1.58;;
59418;SDS011;45224;50.904;6.038;2023-03-23T09:23:12;7.27;;;1.53;;
59418;SDS011;45224;50.904;6.038;2023-03-23T09:24:43;2.95;;;1.20;;
59418;SDS011;45224;50.904;6.038;2023-03-23T09:26:13;3.57;;;1.20;;
59418;SDS011;45224;50.904;6.038;2023-03-23T09:27:44;5.30;;;1.13;;
59418;SDS011;45224;50.904;6.038;2023-03-23T09:29:17;4.53;;;1.35;;
59418;SDS011;45224;50.904;6.038;2023-03-23T09:30:48;4.53;;;1.13;;
59418;SDS011;45224;50.904;6.038;2023-03-23T09:32:19;2.88;;;1.15;;
59418;SDS011;45224;50.904;6.038;2023-03-23T09:33:53;2.95;;;1.15;;
59418;SDS011;45224;50.904;6.038;2023-03-23T09:35:27;6.60;;;1.23;;
59418;SDS011;45224;50.904;6.038;2023-03-23T09:36:58;7.53;;;1.25;;
59418;SDS011;45224;50.904;6.038;2023-03-23T09:38:29;2.75;;;1.10;;
59418;SDS011;45224;50.904;6.038;2023-03-23T09:40:06;6.25;;;1.30;;
59418;SDS011;45224;50.904;6.038;2023-03-23T09:49:30;3.00;;;0.97;;
59418;SDS011;45224;50.904;6.038;2023-03-23T09:52:57;5.05;;;1.60;;
59418;SDS011;45224;50.904;6.038;2023-03-23T09:54:40;2.42;;;1.00;;
59418;SDS011;45224;50.904;6.038;2023-03-23T09:56:13;2.83;;;0.95;;
59418;SDS011;45224;50.904;6.038;2023-03-23T09:57:48;4.03;;;1.25;;
59418;SDS011;45224;50.904;6.038;2023-03-23T09:59:40;4.28;;;1.10;;
59418;SDS011;45224;50.904;6.038;2023-03-23T10:04:49;2.85;;;0.80;;
59418;SDS011;45224;50.904;6.038;2023-03-23T10:06:22;2.97;;;1.00;;
59418;SDS011;45224;50.904;6.038;2023-03-23T10:07:53;2.10;;;0.90;;
59418;SDS011;45224;50.904;6.038;2023-03-23T10:09:24;2.83;;;0.93;;
59418;SDS011;45224;50.904;6.038;2023-03-23T10:12:42;2.97;;;1.00;;
59418;SDS011;45224;50.904;6.038;2023-03-23T10:14:33;1.67;;;0.93;;
59418;SDS011;45224;50.904;6.038;2023-03-23T10:16:14;1.98;;;0.98;;
59418;SDS011;45224;50.904;6.038;2023-03-23T10:17:57;1.75;;;0.93;;
59418;SDS011;45224;50.904;6.038;2023-03-23T10:19:52;5.60;;;0.98;;
59418;SDS011;45224;50.904;6.038;2023-03-23T10:21:39;1.65;;;0.82;;
59418;SDS011;45224;50.904;6.038;2023-03-23T10:26:26;2.33;;;1.00;;
59418;SDS011;45224;50.904;6.038;2023-03-23T10:28:18;1.73;;;1.00;;
59418;SDS011;45224;50.904;6.038;2023-03-23T10:32:02;2.17;;;1.10;;
59418;SDS011;45224;50.904;6.038;2023-03-23T10:33:41;4.07;;;1.10;;
59418;SDS011;45224;50.904;6.038;2023-03-23T10:35:14;5.40;;;1.10;;
59418;SDS011;45224;50.904;6.038;2023-03-23T10:38:24;2.17;;;0.90;;
59418;SDS011;45224;50.904;6.038;2023-03-23T10:40:00;2.85;;;1.20;;